sensor_id;sensor_type;location;lat;lon;timestamp;temperature;humidity
15231;DHT22;32569;51.762;8.564;2023-04-25T00:00:40;7.00;99.90
15231;DHT22;32569;51.762;8.564;2023-04-25T00:03:06;7.10;99.90
15231;DHT22;32569;51.762;8.564;2023-04-25T00:05:34;7.20;99.90
15231;DHT22;32569;51.762;8.564;2023-04-25T00:08:04;7.20;99.90
15231;DHT22;32569;51.762;8.564;2023-04-25T00:10:31;7.10;99.90
15231;DHT22;32569;51.762;8.564;2023-04-25T00:13:00;7.00;99.90
15231;DHT22;32569;51.762;8.564;2023-04-25T00:15:28;7.10;99.90
15231;DHT22;32569;51.762;8.564;2023-04-25T00:17:56;7.10;99.90
15231;DHT22;32569;51.762;8.564;2023-04-25T00:20:23;7.10;99.90
15231;DHT22;32569;51.762;8.564;2023-04-25T00:22:53;7.10;99.90
15231;DHT22;32569;51.762;8.564;2023-04-25T00:25:21;7.20;99.90
15231;DHT22;32569;51.762;8.564;2023-04-25T00:27:47;7.20;99.90
15231;DHT22;32569;51.762;8.564;2023-04-25T00:30:14;7.20;99.90
15231;DHT22;32569;51.762;8.564;2023-04-25T00:32:41;7.20;99.90
15231;DHT22;32569;51.762;8.564;2023-04-25T00:35:15;7.20;99.90
15231;DHT22;32569;51.762;8.564;2023-04-25T00:37:42;7.10;99.90
15231;DHT22;32569;51.762;8.564;2023-04-25T00:40:14;7.10;99.90
15231;DHT22;32569;51.762;8.564;2023-04-25T00:42:42;7.10;99.90
15231;DHT22;32569;51.762;8.564;2023-04-25T00:45:12;7.10;99.90
15231;DHT22;32569;51.762;8.564;2023-04-25T00:47:39;7.20;99.90
15231;DHT22;32569;51.762;8.564;2023-04-25T00:50:08;7.20;99.90
15231;DHT22;32569;51.762;8.564;2023-04-25T00:52:35;7.20;99.90
15231;DHT22;32569;51.762;8.564;2023-04-25T00:55:02;7.10;99.90
15231;DHT22;32569;51.762;8.564;2023-04-25T00:57:28;7.10;99.90
15231;DHT22;32569;51.762;8.564;2023-04-25T00:59:57;7.10;99.90
15231;DHT22;32569;51.762;8.564;2023-04-25T01:02:24;7.10;99.90
15231;DHT22;32569;51.762;8.564;2023-04-25T01:04:52;7.10;99.90
15231;DHT22;32569;51.762;8.564;2023-04-25T01:07:19;7.10;99.90
15231;DHT22;32569;51.762;8.564;2023-04-25T01:09:46;7.10;99.90
15231;DHT22;32569;51.762;8.564;2023-04-25T01:12:12;7.00;99.90
15231;DHT22;32569;51.762;8.564;2023-04-25T01:14:40;7.00;99.90
15231;DHT22;32569;51.762;8.564;2023-04-25T01:17:11;6.80;99.90
15231;DHT22;32569;51.762;8.564;2023-04-25T01:19:38;6.70;99.90
15231;DHT22;32569;51.762;8.564;2023-04-25T01:22:06;6.70;99.90
15231;DHT22;32569;51.762;8.564;2023-04-25T01:24:35;6.80;99.90
15231;DHT22;32569;51.762;8.564;2023-04-25T01:27:03;6.70;99.90
15231;DHT22;32569;51.762;8.564;2023-04-25T01:29:31;6.80;99.90
15231;DHT22;32569;51.762;8.564;2023-04-25T01:31:59;6.70;99.90
15231;DHT22;32569;51.762;8.564;2023-04-25T01:34:26;6.70;99.90
15231;DHT22;32569;51.762;8.564;2023-04-25T01:36:53;6.70;99.90
15231;DHT22;32569;51.762;8.564;2023-04-25T01:39:22;6.70;99.90
15231;DHT22;32569;51.762;8.564;2023-04-25T01:41:49;6.70;99.90
15231;DHT22;32569;51.762;8.564;2023-04-25T01:44:16;6.80;99.90
15231;DHT22;32569;51.762;8.564;2023-04-25T01:46:42;6.70;99.90
15231;DHT22;32569;51.762;8.564;2023-04-25T01:49:12;6.70;99.90
15231;DHT22;32569;51.762;8.564;2023-04-25T01:51:39;6.70;99.90
15231;DHT22;32569;51.762;8.564;2023-04-25T01:54:06;6.70;99.90
15231;DHT22;32569;51.762;8.564;2023-04-25T01:56:37;6.60;99.90
15231;DHT22;32569;51.762;8.564;2023-04-25T01:59:04;6.60;99.90
15231;DHT22;32569;51.762;8.564;2023-04-25T02:01:33;6.70;99.90
15231;DHT22;32569;51.762;8.564;2023-04-25T02:04:00;6.60;99.90
15231;DHT22;32569;51.762;8.564;2023-04-25T02:06:29;6.60;99.90
15231;DHT22;32569;51.762;8.564;2023-04-25T02:08:56;6.60;99.90
15231;DHT22;32569;51.762;8.564;2023-04-25T02:11:22;6.70;99.90
15231;DHT22;32569;51.762;8.564;2023-04-25T02:13:50;6.60;99.90
15231;DHT22;32569;51.762;8.564;2023-04-25T02:16:17;6.60;99.90
15231;DHT22;32569;51.762;8.564;2023-04-25T02:18:44;6.50;99.90
15231;DHT22;32569;51.762;8.564;2023-04-25T02:21:10;6.50;99.90
15231;DHT22;32569;51.762;8.564;2023-04-25T02:23:37;6.50;99.90
15231;DHT22;32569;51.762;8.564;2023-04-25T02:26:04;6.50;99.90
15231;DHT22;32569;51.762;8.564;2023-04-25T02:28:31;6.50;99.90
15231;DHT22;32569;51.762;8.564;2023-04-25T02:30:59;6.50;99.90
15231;DHT22;32569;51.762;8.564;2023-04-25T02:33:31;6.40;99.90
15231;DHT22;32569;51.762;8.564;2023-04-25T02:35:58;6.40;99.90
15231;DHT22;32569;51.762;8.564;2023-04-25T02:38:25;6.50;99.90
15231;DHT22;32569;51.762;8.564;2023-04-25T02:40:51;6.40;99.90
15231;DHT22;32569;51.762;8.564;2023-04-25T02:43:18;6.40;99.90
15231;DHT22;32569;51.762;8.564;2023-04-25T02:45:46;6.40;99.90
15231;DHT22;32569;51.762;8.564;2023-04-25T02:48:13;6.40;99.90
15231;DHT22;32569;51.762;8.564;2023-04-25T02:50:40;6.40;99.90
15231;DHT22;32569;51.762;8.564;2023-04-25T02:53:07;6.50;99.90
15231;DHT22;32569;51.762;8.564;2023-04-25T02:55:34;6.50;99.90
15231;DHT22;32569;51.762;8.564;2023-04-25T02:58:01;6.50;99.90
15231;DHT22;32569;51.762;8.564;2023-04-25T03:00:28;6.50;99.90
15231;DHT22;32569;51.762;8.564;2023-04-25T03:02:54;6.30;99.90
15231;DHT22;32569;51.762;8.564;2023-04-25T03:05:22;6.10;99.90
15231;DHT22;32569;51.762;8.564;2023-04-25T03:07:49;6.00;99.90
15231;DHT22;32569;51.762;8.564;2023-04-25T03:10:15;6.00;99.90
15231;DHT22;32569;51.762;8.564;2023-04-25T03:12:42;6.10;99.90
15231;DHT22;32569;51.762;8.564;2023-04-25T03:15:09;6.00;99.90
15231;DHT22;32569;51.762;8.564;2023-04-25T03:17:36;6.10;99.90
15231;DHT22;32569;51.762;8.564;2023-04-25T03:20:03;6.20;99.90
15231;DHT22;32569;51.762;8.564;2023-04-25T03:22:32;6.20;99.90
15231;DHT22;32569;51.762;8.564;2023-04-25T03:24:58;6.20;99.90
15231;DHT22;32569;51.762;8.564;2023-04-25T03:27:25;6.20;99.90
15231;DHT22;32569;51.762;8.564;2023-04-25T03:29:52;6.20;99.90
15231;DHT22;32569;51.762;8.564;2023-04-25T03:32:18;6.20;99.90
15231;DHT22;32569;51.762;8.564;2023-04-25T03:34:45;6.10;99.90
15231;DHT22;32569;51.762;8.564;2023-04-25T03:37:11;6.20;99.90
15231;DHT22;32569;51.762;8.564;2023-04-25T03:39:39;6.20;99.90
15231;DHT22;32569;51.762;8.564;2023-04-25T03:42:06;6.30;99.90
15231;DHT22;32569;51.762;8.564;2023-04-25T03:44:33;6.30;99.90
15231;DHT22;32569;51.762;8.564;2023-04-25T03:46:59;6.30;99.90
15231;DHT22;32569;51.762;8.564;2023-04-25T03:49:29;6.30;99.90
15231;DHT22;32569;51.762;8.564;2023-04-25T03:51:55;6.20;99.90
15231;DHT22;32569;51.762;8.564;2023-04-25T03:54:22;6.30;99.90
15231;DHT22;32569;51.762;8.564;2023-04-25T03:56:50;6.20;99.90
15231;DHT22;32569;51.762;8.564;2023-04-25T03:59:16;6.20;99.90
15231;DHT22;32569;51.762;8.564;2023-04-25T04:01:43;6.20;99.90
15231;DHT22;32569;51.762;8.564;2023-04-25T04:04:09;6.30;99.90
15231;DHT22;32569;51.762;8.564;2023-04-25T04:06:36;6.30;99.90
15231;DHT22;32569;51.762;8.564;2023-04-25T04:09:03;6.30;99.90
15231;DHT22;32569;51.762;8.564;2023-04-25T04:11:31;6.20;99.90
15231;DHT22;32569;51.762;8.564;2023-04-25T04:13:59;6.30;99.90
15231;DHT22;32569;51.762;8.564;2023-04-25T04:16:31;6.40;99.90
15231;DHT22;32569;51.762;8.564;2023-04-25T04:18:58;6.40;99.90
15231;DHT22;32569;51.762;8.564;2023-04-25T04:21:24;6.30;99.90
15231;DHT22;32569;51.762;8.564;2023-04-25T04:23:52;6.30;99.90
15231;DHT22;32569;51.762;8.564;2023-04-25T04:26:20;6.30;99.90
15231;DHT22;32569;51.762;8.564;2023-04-25T04:28:48;6.30;99.90
15231;DHT22;32569;51.762;8.564;2023-04-25T04:31:17;6.30;99.90
15231;DHT22;32569;51.762;8.564;2023-04-25T04:33:44;6.40;99.90
15231;DHT22;32569;51.762;8.564;2023-04-25T04:36:11;6.30;99.90
15231;DHT22;32569;51.762;8.564;2023-04-25T04:38:39;6.30;99.90
15231;DHT22;32569;51.762;8.564;2023-04-25T04:41:06;6.20;99.90
15231;DHT22;32569;51.762;8.564;2023-04-25T04:43:33;6.10;99.90
15231;DHT22;32569;51.762;8.564;2023-04-25T04:46:00;6.10;99.90
15231;DHT22;32569;51.762;8.564;2023-04-25T04:48:30;6.20;99.90
15231;DHT22;32569;51.762;8.564;2023-04-25T04:50:58;6.20;99.90
15231;DHT22;32569;51.762;8.564;2023-04-25T04:53:24;6.20;99.90
15231;DHT22;32569;51.762;8.564;2023-04-25T04:55:51;6.10;99.90
15231;DHT22;32569;51.762;8.564;2023-04-25T04:58:18;6.20;99.90
15231;DHT22;32569;51.762;8.564;2023-04-25T05:00:45;6.10;99.90
15231;DHT22;32569;51.762;8.564;2023-04-25T05:03:11;6.10;99.90
15231;DHT22;32569;51.762;8.564;2023-04-25T05:05:39;6.10;99.90
15231;DHT22;32569;51.762;8.564;2023-04-25T05:08:06;6.20;99.90
15231;DHT22;32569;51.762;8.564;2023-04-25T05:10:33;6.20;99.90
15231;DHT22;32569;51.762;8.564;2023-04-25T05:12:59;6.10;99.90
15231;DHT22;32569;51.762;8.564;2023-04-25T05:15:26;6.10;99.90
15231;DHT22;32569;51.762;8.564;2023-04-25T05:17:53;6.10;99.90
15231;DHT22;32569;51.762;8.564;2023-04-25T05:20:19;6.10;99.90
15231;DHT22;32569;51.762;8.564;2023-04-25T05:22:47;6.10;99.90
15231;DHT22;32569;51.762;8.564;2023-04-25T05:25:14;6.20;99.90
15231;DHT22;32569;51.762;8.564;2023-04-25T05:27:40;6.20;99.90
15231;DHT22;32569;51.762;8.564;2023-04-25T05:30:08;6.20;99.90
15231;DHT22;32569;51.762;8.564;2023-04-25T05:32:35;6.30;99.90
15231;DHT22;32569;51.762;8.564;2023-04-25T05:35:02;6.20;99.90
15231;DHT22;32569;51.762;8.564;2023-04-25T05:37:28;6.30;99.90
15231;DHT22;32569;51.762;8.564;2023-04-25T05:39:57;6.40;99.90
15231;DHT22;32569;51.762;8.564;2023-04-25T05:42:24;6.50;99.90
15231;DHT22;32569;51.762;8.564;2023-04-25T05:44:51;6.50;99.90
15231;DHT22;32569;51.762;8.564;2023-04-25T05:47:17;6.40;99.90
15231;DHT22;32569;51.762;8.564;2023-04-25T05:49:44;6.50;99.90
15231;DHT22;32569;51.762;8.564;2023-04-25T05:52:10;6.50;99.90
15231;DHT22;32569;51.762;8.564;2023-04-25T05:54:37;6.60;99.90
15231;DHT22;32569;51.762;8.564;2023-04-25T05:57:05;6.70;99.90
15231;DHT22;32569;51.762;8.564;2023-04-25T05:59:32;6.40;99.90
15231;DHT22;32569;51.762;8.564;2023-04-25T06:01:59;6.50;99.90
15231;DHT22;32569;51.762;8.564;2023-04-25T06:04:26;6.70;99.90
15231;DHT22;32569;51.762;8.564;2023-04-25T06:06:52;6.80;99.90
15231;DHT22;32569;51.762;8.564;2023-04-25T06:09:19;6.80;99.90
15231;DHT22;32569;51.762;8.564;2023-04-25T06:11:46;6.90;99.90
15231;DHT22;32569;51.762;8.564;2023-04-25T06:14:14;7.00;99.90
15231;DHT22;32569;51.762;8.564;2023-04-25T06:16:41;7.10;99.90
15231;DHT22;32569;51.762;8.564;2023-04-25T06:19:07;7.00;99.90
15231;DHT22;32569;51.762;8.564;2023-04-25T06:21:34;7.10;99.90
15231;DHT22;32569;51.762;8.564;2023-04-25T06:24:01;7.10;99.90
15231;DHT22;32569;51.762;8.564;2023-04-25T06:26:27;7.10;99.90
15231;DHT22;32569;51.762;8.564;2023-04-25T06:28:54;7.10;99.90
15231;DHT22;32569;51.762;8.564;2023-04-25T06:31:22;7.00;99.90
15231;DHT22;32569;51.762;8.564;2023-04-25T06:33:49;7.20;99.90
15231;DHT22;32569;51.762;8.564;2023-04-25T06:36:15;7.10;99.90
15231;DHT22;32569;51.762;8.564;2023-04-25T06:38:42;7.10;99.90
15231;DHT22;32569;51.762;8.564;2023-04-25T06:41:08;7.20;99.90
15231;DHT22;32569;51.762;8.564;2023-04-25T06:43:35;7.20;99.90
15231;DHT22;32569;51.762;8.564;2023-04-25T06:46:02;7.10;99.90
15231;DHT22;32569;51.762;8.564;2023-04-25T06:48:30;7.20;99.90
15231;DHT22;32569;51.762;8.564;2023-04-25T06:50:56;7.00;99.90
15231;DHT22;32569;51.762;8.564;2023-04-25T06:53:23;7.20;99.90
15231;DHT22;32569;51.762;8.564;2023-04-25T06:55:49;7.30;99.90
15231;DHT22;32569;51.762;8.564;2023-04-25T06:58:17;7.60;99.90
15231;DHT22;32569;51.762;8.564;2023-04-25T07:00:44;7.40;99.90
15231;DHT22;32569;51.762;8.564;2023-04-25T07:03:10;7.40;99.90
15231;DHT22;32569;51.762;8.564;2023-04-25T07:05:38;7.70;99.90
15231;DHT22;32569;51.762;8.564;2023-04-25T07:08:05;7.70;99.90
15231;DHT22;32569;51.762;8.564;2023-04-25T07:10:32;7.50;99.90
15231;DHT22;32569;51.762;8.564;2023-04-25T07:12:58;7.40;99.90
15231;DHT22;32569;51.762;8.564;2023-04-25T07:15:25;7.40;99.90
15231;DHT22;32569;51.762;8.564;2023-04-25T07:17:55;7.50;99.90
15231;DHT22;32569;51.762;8.564;2023-04-25T07:20:21;7.70;99.90
15231;DHT22;32569;51.762;8.564;2023-04-25T07:22:49;7.80;99.90
15231;DHT22;32569;51.762;8.564;2023-04-25T07:25:16;7.80;99.90
15231;DHT22;32569;51.762;8.564;2023-04-25T07:27:43;7.70;99.90
15231;DHT22;32569;51.762;8.564;2023-04-25T07:30:10;7.50;99.90
15231;DHT22;32569;51.762;8.564;2023-04-25T07:32:38;7.50;99.90
15231;DHT22;32569;51.762;8.564;2023-04-25T07:35:05;7.60;99.90
15231;DHT22;32569;51.762;8.564;2023-04-25T07:37:32;7.30;99.90
15231;DHT22;32569;51.762;8.564;2023-04-25T07:40:00;7.20;99.90
15231;DHT22;32569;51.762;8.564;2023-04-25T07:42:28;7.30;99.90
15231;DHT22;32569;51.762;8.564;2023-04-25T07:44:55;7.40;99.90
15231;DHT22;32569;51.762;8.564;2023-04-25T07:47:22;7.40;99.70
15231;DHT22;32569;51.762;8.564;2023-04-25T07:49:48;7.50;99.30
15231;DHT22;32569;51.762;8.564;2023-04-25T07:52:15;7.60;99.70
15231;DHT22;32569;51.762;8.564;2023-04-25T07:54:42;7.60;99.60
15231;DHT22;32569;51.762;8.564;2023-04-25T07:57:09;7.70;99.50
15231;DHT22;32569;51.762;8.564;2023-04-25T07:59:37;7.70;99.70
15231;DHT22;32569;51.762;8.564;2023-04-25T08:02:03;7.70;99.60
15231;DHT22;32569;51.762;8.564;2023-04-25T08:04:30;7.90;99.50
15231;DHT22;32569;51.762;8.564;2023-04-25T08:06:57;7.90;98.30
15231;DHT22;32569;51.762;8.564;2023-04-25T08:09:23;7.90;98.30
15231;DHT22;32569;51.762;8.564;2023-04-25T08:11:50;8.00;98.00
15231;DHT22;32569;51.762;8.564;2023-04-25T08:14:18;8.00;98.00
15231;DHT22;32569;51.762;8.564;2023-04-25T08:16:45;8.40;98.80
15231;DHT22;32569;51.762;8.564;2023-04-25T08:19:12;8.50;97.30
15231;DHT22;32569;51.762;8.564;2023-04-25T08:21:38;8.60;97.90
15231;DHT22;32569;51.762;8.564;2023-04-25T08:24:05;8.90;97.80
15231;DHT22;32569;51.762;8.564;2023-04-25T08:26:32;8.90;95.70
15231;DHT22;32569;51.762;8.564;2023-04-25T08:28:59;8.80;95.70
15231;DHT22;32569;51.762;8.564;2023-04-25T08:31:28;8.70;95.30
15231;DHT22;32569;51.762;8.564;2023-04-25T08:33:54;8.50;95.30
15231;DHT22;32569;51.762;8.564;2023-04-25T08:36:21;8.50;95.30
15231;DHT22;32569;51.762;8.564;2023-04-25T08:38:48;8.40;95.10
15231;DHT22;32569;51.762;8.564;2023-04-25T08:41:15;8.50;95.30
15231;DHT22;32569;51.762;8.564;2023-04-25T08:43:43;8.30;93.20
15231;DHT22;32569;51.762;8.564;2023-04-25T08:46:11;8.30;94.40
15231;DHT22;32569;51.762;8.564;2023-04-25T08:48:40;8.50;94.40
15231;DHT22;32569;51.762;8.564;2023-04-25T08:51:10;8.50;94.40
15231;DHT22;32569;51.762;8.564;2023-04-25T08:53:40;8.50;94.50
15231;DHT22;32569;51.762;8.564;2023-04-25T08:56:08;8.40;93.70
15231;DHT22;32569;51.762;8.564;2023-04-25T08:58:38;8.60;94.70
15231;DHT22;32569;51.762;8.564;2023-04-25T09:01:05;8.60;93.80
15231;DHT22;32569;51.762;8.564;2023-04-25T09:03:32;8.60;94.50
15231;DHT22;32569;51.762;8.564;2023-04-25T09:06:00;8.30;93.20
15231;DHT22;32569;51.762;8.564;2023-04-25T09:08:27;8.40;94.30
15231;DHT22;32569;51.762;8.564;2023-04-25T09:10:54;8.50;94.80
15231;DHT22;32569;51.762;8.564;2023-04-25T09:13:25;8.70;94.50
15231;DHT22;32569;51.762;8.564;2023-04-25T09:15:53;8.90;92.70
15231;DHT22;32569;51.762;8.564;2023-04-25T09:18:24;9.10;93.90
15231;DHT22;32569;51.762;8.564;2023-04-25T09:20:52;9.40;93.70
15231;DHT22;32569;51.762;8.564;2023-04-25T09:23:21;9.20;93.80
15231;DHT22;32569;51.762;8.564;2023-04-25T09:25:50;9.00;92.60
15231;DHT22;32569;51.762;8.564;2023-04-25T09:28:23;9.10;92.70
15231;DHT22;32569;51.762;8.564;2023-04-25T09:30:49;9.10;92.90
15231;DHT22;32569;51.762;8.564;2023-04-25T09:33:20;9.00;92.50
15231;DHT22;32569;51.762;8.564;2023-04-25T09:35:53;8.90;91.80
15231;DHT22;32569;51.762;8.564;2023-04-25T09:38:22;9.00;92.40
15231;DHT22;32569;51.762;8.564;2023-04-25T09:40:49;8.90;93.00
15231;DHT22;32569;51.762;8.564;2023-04-25T09:43:22;8.90;92.80
15231;DHT22;32569;51.762;8.564;2023-04-25T09:45:49;9.10;94.00
15231;DHT22;32569;51.762;8.564;2023-04-25T09:48:17;9.30;93.60
15231;DHT22;32569;51.762;8.564;2023-04-25T09:50:45;9.50;92.20
15231;DHT22;32569;51.762;8.564;2023-04-25T09:53:12;9.60;91.50
15231;DHT22;32569;51.762;8.564;2023-04-25T09:55:40;9.50;90.90
15231;DHT22;32569;51.762;8.564;2023-04-25T09:58:10;9.40;90.60
15231;DHT22;32569;51.762;8.564;2023-04-25T10:00:38;9.50;90.10
15231;DHT22;32569;51.762;8.564;2023-04-25T10:03:05;9.40;91.00
15231;DHT22;32569;51.762;8.564;2023-04-25T10:05:34;9.70;91.00
15231;DHT22;32569;51.762;8.564;2023-04-25T10:08:03;9.70;90.80
15231;DHT22;32569;51.762;8.564;2023-04-25T10:10:30;9.60;91.20
15231;DHT22;32569;51.762;8.564;2023-04-25T10:13:03;9.50;91.60
15231;DHT22;32569;51.762;8.564;2023-04-25T10:15:32;9.30;90.40
15231;DHT22;32569;51.762;8.564;2023-04-25T10:17:59;9.40;91.40
15231;DHT22;32569;51.762;8.564;2023-04-25T10:20:26;9.60;90.50
15231;DHT22;32569;51.762;8.564;2023-04-25T10:22:54;9.60;90.00
15231;DHT22;32569;51.762;8.564;2023-04-25T10:25:23;9.90;90.90
15231;DHT22;32569;51.762;8.564;2023-04-25T10:27:50;9.90;89.40
15231;DHT22;32569;51.762;8.564;2023-04-25T10:30:18;9.90;90.30
15231;DHT22;32569;51.762;8.564;2023-04-25T10:32:45;9.90;90.50
15231;DHT22;32569;51.762;8.564;2023-04-25T10:35:17;9.70;88.80
15231;DHT22;32569;51.762;8.564;2023-04-25T10:38:00;9.30;89.50
15231;DHT22;32569;51.762;8.564;2023-04-25T10:40:28;9.60;91.10
15231;DHT22;32569;51.762;8.564;2023-04-25T10:42:55;9.50;89.20
15231;DHT22;32569;51.762;8.564;2023-04-25T10:45:23;9.40;90.10
15231;DHT22;32569;51.762;8.564;2023-04-25T10:47:50;9.60;90.50
15231;DHT22;32569;51.762;8.564;2023-04-25T10:50:17;9.80;91.10
15231;DHT22;32569;51.762;8.564;2023-04-25T10:52:44;9.90;91.80
15231;DHT22;32569;51.762;8.564;2023-04-25T10:55:10;9.90;92.30
15231;DHT22;32569;51.762;8.564;2023-04-25T10:57:38;9.90;92.30
15231;DHT22;32569;51.762;8.564;2023-04-25T11:00:08;10.00;91.80
15231;DHT22;32569;51.762;8.564;2023-04-25T11:02:45;9.90;91.10
15231;DHT22;32569;51.762;8.564;2023-04-25T11:05:20;10.00;90.80
15231;DHT22;32569;51.762;8.564;2023-04-25T11:07:50;9.90;90.10
15231;DHT22;32569;51.762;8.564;2023-04-25T11:10:18;9.90;90.30
15231;DHT22;32569;51.762;8.564;2023-04-25T11:12:45;9.70;90.00
15231;DHT22;32569;51.762;8.564;2023-04-25T11:15:12;9.60;90.50
15231;DHT22;32569;51.762;8.564;2023-04-25T11:17:39;9.60;91.00
15231;DHT22;32569;51.762;8.564;2023-04-25T11:20:08;9.50;91.00
15231;DHT22;32569;51.762;8.564;2023-04-25T11:22:37;9.50;91.00
15231;DHT22;32569;51.762;8.564;2023-04-25T11:25:05;9.50;90.80
15231;DHT22;32569;51.762;8.564;2023-04-25T11:27:32;9.60;91.40
15231;DHT22;32569;51.762;8.564;2023-04-25T11:30:10;9.90;91.10
15231;DHT22;32569;51.762;8.564;2023-04-25T11:32:36;10.10;90.20
15231;DHT22;32569;51.762;8.564;2023-04-25T11:35:04;9.80;88.40
15231;DHT22;32569;51.762;8.564;2023-04-25T11:37:32;9.90;89.70
15231;DHT22;32569;51.762;8.564;2023-04-25T11:39:59;9.90;90.10
15231;DHT22;32569;51.762;8.564;2023-04-25T11:42:26;10.20;90.40
15231;DHT22;32569;51.762;8.564;2023-04-25T11:44:53;10.20;90.30
15231;DHT22;32569;51.762;8.564;2023-04-25T11:47:19;10.30;90.30
15231;DHT22;32569;51.762;8.564;2023-04-25T11:49:46;10.10;90.20
15231;DHT22;32569;51.762;8.564;2023-04-25T11:52:12;10.10;90.00
15231;DHT22;32569;51.762;8.564;2023-04-25T11:54:40;10.00;89.00
15231;DHT22;32569;51.762;8.564;2023-04-25T11:57:07;9.90;88.80
15231;DHT22;32569;51.762;8.564;2023-04-25T11:59:34;10.00;89.90
15231;DHT22;32569;51.762;8.564;2023-04-25T12:02:01;10.10;87.40
15231;DHT22;32569;51.762;8.564;2023-04-25T12:04:30;10.00;87.40
15231;DHT22;32569;51.762;8.564;2023-04-25T12:06:57;10.20;87.40
15231;DHT22;32569;51.762;8.564;2023-04-25T12:09:29;10.20;86.70
15231;DHT22;32569;51.762;8.564;2023-04-25T12:11:58;10.10;87.80
15231;DHT22;32569;51.762;8.564;2023-04-25T12:14:29;10.00;88.10
15231;DHT22;32569;51.762;8.564;2023-04-25T12:16:57;9.80;89.00
15231;DHT22;32569;51.762;8.564;2023-04-25T12:19:24;9.90;89.60
15231;DHT22;32569;51.762;8.564;2023-04-25T12:21:52;10.10;90.00
15231;DHT22;32569;51.762;8.564;2023-04-25T12:24:22;9.90;88.70
15231;DHT22;32569;51.762;8.564;2023-04-25T12:26:51;9.80;90.20
15231;DHT22;32569;51.762;8.564;2023-04-25T12:29:21;9.70;90.30
15231;DHT22;32569;51.762;8.564;2023-04-25T12:31:49;9.40;90.40
15231;DHT22;32569;51.762;8.564;2023-04-25T12:34:15;9.40;90.90
15231;DHT22;32569;51.762;8.564;2023-04-25T12:36:42;9.60;91.00
15231;DHT22;32569;51.762;8.564;2023-04-25T12:39:13;9.70;90.80
15231;DHT22;32569;51.762;8.564;2023-04-25T12:41:40;9.90;90.40
15231;DHT22;32569;51.762;8.564;2023-04-25T12:44:07;9.90;89.90
15231;DHT22;32569;51.762;8.564;2023-04-25T12:46:35;9.70;90.00
15231;DHT22;32569;51.762;8.564;2023-04-25T12:49:02;10.10;90.50
15231;DHT22;32569;51.762;8.564;2023-04-25T12:51:29;10.20;90.00
15231;DHT22;32569;51.762;8.564;2023-04-25T12:53:58;10.20;90.00
15231;DHT22;32569;51.762;8.564;2023-04-25T12:56:24;10.30;90.20
15231;DHT22;32569;51.762;8.564;2023-04-25T12:58:52;10.30;89.50
15231;DHT22;32569;51.762;8.564;2023-04-25T13:01:19;10.50;90.20
15231;DHT22;32569;51.762;8.564;2023-04-25T13:03:47;10.30;88.50
15231;DHT22;32569;51.762;8.564;2023-04-25T13:06:14;10.20;89.20
15231;DHT22;32569;51.762;8.564;2023-04-25T13:08:41;10.30;91.00
15231;DHT22;32569;51.762;8.564;2023-04-25T13:11:08;10.30;90.20
15231;DHT22;32569;51.762;8.564;2023-04-25T13:13:35;10.00;90.40
15231;DHT22;32569;51.762;8.564;2023-04-25T13:16:02;10.10;91.30
15231;DHT22;32569;51.762;8.564;2023-04-25T13:18:30;9.90;91.20
15231;DHT22;32569;51.762;8.564;2023-04-25T13:20:58;10.20;91.40
15231;DHT22;32569;51.762;8.564;2023-04-25T13:23:27;10.20;90.60
15231;DHT22;32569;51.762;8.564;2023-04-25T13:25:55;9.80;91.50
15231;DHT22;32569;51.762;8.564;2023-04-25T13:28:23;10.00;91.00
15231;DHT22;32569;51.762;8.564;2023-04-25T13:30:49;10.10;90.60
15231;DHT22;32569;51.762;8.564;2023-04-25T13:33:17;10.00;90.70
15231;DHT22;32569;51.762;8.564;2023-04-25T13:35:43;10.00;90.90
15231;DHT22;32569;51.762;8.564;2023-04-25T13:38:13;10.00;91.20
15231;DHT22;32569;51.762;8.564;2023-04-25T13:40:40;10.10;88.70
15231;DHT22;32569;51.762;8.564;2023-04-25T13:43:06;9.90;87.60
15231;DHT22;32569;51.762;8.564;2023-04-25T13:45:33;10.10;89.70
15231;DHT22;32569;51.762;8.564;2023-04-25T13:48:00;10.10;86.30
15231;DHT22;32569;51.762;8.564;2023-04-25T13:50:26;10.10;86.70
15231;DHT22;32569;51.762;8.564;2023-04-25T13:52:53;10.20;86.40
15231;DHT22;32569;51.762;8.564;2023-04-25T13:55:21;10.10;86.40
15231;DHT22;32569;51.762;8.564;2023-04-25T13:57:48;10.20;87.30
15231;DHT22;32569;51.762;8.564;2023-04-25T14:00:15;10.40;88.40
15231;DHT22;32569;51.762;8.564;2023-04-25T14:02:42;10.70;86.10
15231;DHT22;32569;51.762;8.564;2023-04-25T14:05:09;10.80;84.40
15231;DHT22;32569;51.762;8.564;2023-04-25T14:07:36;10.60;83.80
15231;DHT22;32569;51.762;8.564;2023-04-25T14:10:03;10.80;85.10
15231;DHT22;32569;51.762;8.564;2023-04-25T14:12:32;11.10;84.40
15231;DHT22;32569;51.762;8.564;2023-04-25T14:14:59;11.10;83.30
15231;DHT22;32569;51.762;8.564;2023-04-25T14:17:26;11.00;85.70
15231;DHT22;32569;51.762;8.564;2023-04-25T14:19:53;10.80;90.40
15231;DHT22;32569;51.762;8.564;2023-04-25T14:22:20;10.50;90.70
15231;DHT22;32569;51.762;8.564;2023-04-25T14:24:46;10.30;91.00
15231;DHT22;32569;51.762;8.564;2023-04-25T14:27:13;10.00;91.00
15231;DHT22;32569;51.762;8.564;2023-04-25T14:29:41;9.70;91.50
15231;DHT22;32569;51.762;8.564;2023-04-25T14:32:08;9.60;91.30
15231;DHT22;32569;51.762;8.564;2023-04-25T14:34:35;9.10;91.80
15231;DHT22;32569;51.762;8.564;2023-04-25T14:37:02;9.10;92.00
15231;DHT22;32569;51.762;8.564;2023-04-25T14:39:32;9.10;92.50
15231;DHT22;32569;51.762;8.564;2023-04-25T14:41:58;9.10;91.70
15231;DHT22;32569;51.762;8.564;2023-04-25T14:44:25;9.10;91.80
15231;DHT22;32569;51.762;8.564;2023-04-25T14:46:56;8.90;93.20
15231;DHT22;32569;51.762;8.564;2023-04-25T14:49:23;8.80;93.00
15231;DHT22;32569;51.762;8.564;2023-04-25T14:51:50;8.70;93.90
15231;DHT22;32569;51.762;8.564;2023-04-25T14:54:16;8.60;95.40
15231;DHT22;32569;51.762;8.564;2023-04-25T14:56:43;8.30;96.10
15231;DHT22;32569;51.762;8.564;2023-04-25T14:59:10;8.20;96.70
15231;DHT22;32569;51.762;8.564;2023-04-25T15:01:36;8.10;98.10
15231;DHT22;32569;51.762;8.564;2023-04-25T15:04:04;8.20;97.70
15231;DHT22;32569;51.762;8.564;2023-04-25T15:06:31;8.20;97.80
15231;DHT22;32569;51.762;8.564;2023-04-25T15:08:58;8.20;97.70
15231;DHT22;32569;51.762;8.564;2023-04-25T15:11:25;8.20;98.10
15231;DHT22;32569;51.762;8.564;2023-04-25T15:13:51;8.20;98.30
15231;DHT22;32569;51.762;8.564;2023-04-25T15:16:18;8.20;98.00
15231;DHT22;32569;51.762;8.564;2023-04-25T15:18:45;8.20;98.30
15231;DHT22;32569;51.762;8.564;2023-04-25T15:21:13;8.10;97.90
15231;DHT22;32569;51.762;8.564;2023-04-25T15:23:40;8.30;97.50
15231;DHT22;32569;51.762;8.564;2023-04-25T15:26:07;8.20;97.50
15231;DHT22;32569;51.762;8.564;2023-04-25T15:28:34;8.50;97.80
15231;DHT22;32569;51.762;8.564;2023-04-25T15:31:01;8.70;96.60
15231;DHT22;32569;51.762;8.564;2023-04-25T15:33:27;9.00;96.90
15231;DHT22;32569;51.762;8.564;2023-04-25T15:35:54;9.10;95.70
15231;DHT22;32569;51.762;8.564;2023-04-25T15:38:24;9.10;95.50
15231;DHT22;32569;51.762;8.564;2023-04-25T15:40:52;9.20;95.10
15231;DHT22;32569;51.762;8.564;2023-04-25T15:43:18;9.00;93.90
15231;DHT22;32569;51.762;8.564;2023-04-25T15:45:45;9.20;93.90